createdAt,value
2018-12-15T00:00:46.123Z,60.53
2018-12-15T00:03:16.675Z,59.50
2018-12-15T00:05:49.308Z,60.87
2018-12-15T00:08:23.853Z,65.97
2018-12-15T00:13:47.034Z,61.40
2018-12-15T00:16:18.915Z,62.30
2018-12-15T00:18:51.460Z,52.23
2018-12-15T00:21:23.472Z,57.77
2018-12-15T00:23:55.855Z,57.60
2018-12-15T00:26:28.469Z,59.80
2018-12-15T00:29:00.216Z,56.23
2018-12-15T00:31:32.840Z,49.63
2018-12-15T00:34:07.125Z,53.23
2018-12-15T00:36:39.029Z,44.77
2018-12-15T00:39:09.292Z,53.53
2018-12-15T00:41:41.647Z,43.33
2018-12-15T00:44:16.228Z,50.50
2018-12-15T00:49:20.079Z,46.73
2018-12-15T00:51:52.256Z,48.27
2018-12-15T00:54:24.413Z,48.57
2018-12-15T00:56:56.068Z,45.60
2018-12-15T00:59:26.644Z,50.97
2018-12-15T01:01:59.237Z,43.63
2018-12-15T01:04:31.145Z,48.57
2018-12-15T01:07:03.197Z,37.10
2018-12-15T01:09:35.668Z,35.97
2018-12-15T01:12:07.700Z,46.07
2018-12-15T01:14:40.004Z,42.33
2018-12-15T01:17:12.217Z,33.63
2018-12-15T01:19:44.463Z,47.97
2018-12-15T01:22:16.539Z,47.43
2018-12-15T01:24:49.316Z,49.40
2018-12-15T01:27:21.058Z,50.57
2018-12-15T01:29:53.543Z,50.83
2018-12-15T01:32:23.867Z,45.73
2018-12-15T01:34:56.166Z,43.90
2018-12-15T01:37:27.070Z,46.43
2018-12-15T01:39:59.463Z,35.97
2018-12-15T01:42:31.973Z,45.47
2018-12-15T01:45:06.395Z,47.53
2018-12-15T01:47:35.200Z,48.17
2018-12-15T01:50:07.350Z,47.17
2018-12-15T01:52:39.467Z,52.00
2018-12-15T01:55:11.590Z,49.33
2018-12-15T01:57:44.151Z,50.27
2018-12-15T02:00:16.190Z,43.90
2018-12-15T02:02:46.544Z,48.93
2018-12-15T02:05:18.684Z,51.17
2018-12-15T02:07:51.008Z,51.03
2018-12-15T02:10:22.564Z,54.70
2018-12-15T02:12:55.080Z,50.83
2018-12-15T02:15:27.342Z,53.47
2018-12-15T02:18:00.098Z,50.80
2018-12-15T02:20:31.903Z,50.83
2018-12-15T02:23:04.883Z,50.13
2018-12-15T02:25:37.313Z,51.80
2018-12-15T02:28:09.337Z,54.87
2018-12-15T02:30:41.645Z,55.13
2018-12-15T02:33:16.029Z,55.70
2018-12-15T02:35:47.921Z,54.23
2018-12-15T02:38:20.016Z,54.07
2018-12-15T02:40:52.407Z,53.67
2018-12-15T02:43:25.147Z,43.67
2018-12-15T02:45:58.219Z,53.43
2018-12-15T02:48:31.956Z,53.80
2018-12-15T02:51:04.416Z,58.30
2018-12-15T02:53:37.510Z,56.60
2018-12-15T02:56:10.353Z,54.13
2018-12-15T02:58:44.620Z,57.37
2018-12-15T03:01:15.732Z,56.20
2018-12-15T03:03:50.124Z,57.57
2018-12-15T03:06:23.162Z,62.17
2018-12-15T03:08:58.953Z,47.23
2018-12-15T03:11:32.795Z,58.33
2018-12-15T03:14:06.361Z,61.67
2018-12-15T03:16:43.988Z,61.10
2018-12-15T03:19:17.344Z,56.97
2018-12-15T03:21:49.732Z,59.67
2018-12-15T03:24:22.302Z,64.60
2018-12-15T03:26:54.803Z,61.20
2018-12-15T03:29:29.232Z,60.00
2018-12-15T03:32:02.524Z,63.03
2018-12-15T03:34:36.281Z,58.83
2018-12-15T03:37:08.512Z,61.87
2018-12-15T03:39:41.924Z,61.77
2018-12-15T03:42:12.488Z,68.13
2018-12-15T03:44:45.062Z,61.50
2018-12-15T03:47:15.901Z,66.40
2018-12-15T03:49:48.726Z,67.20
2018-12-15T03:52:22.355Z,67.83
2018-12-15T03:54:55.918Z,62.90
2018-12-15T03:57:29.139Z,73.17
2018-12-15T04:00:03.224Z,67.23
2018-12-15T04:02:39.615Z,73.40
2018-12-15T04:05:09.897Z,68.97
2018-12-15T04:07:43.131Z,75.33
2018-12-15T04:10:15.492Z,68.27
2018-12-15T04:12:48.281Z,69.20
2018-12-15T04:15:21.482Z,79.27
2018-12-15T04:18:03.455Z,69.07
2018-12-15T04:20:33.722Z,71.73
2018-12-15T04:23:06.696Z,71.27
2018-12-15T04:25:39.249Z,74.90
2018-12-15T04:28:11.948Z,66.97
2018-12-15T04:30:44.487Z,70.73
2018-12-15T04:33:15.336Z,69.27
2018-12-15T04:35:47.221Z,63.07
2018-12-15T04:38:19.217Z,77.83
2018-12-15T04:40:51.876Z,67.80
2018-12-15T04:43:24.125Z,69.13
2018-12-15T04:45:55.853Z,74.27
2018-12-15T04:48:29.419Z,72.10
2018-12-15T04:51:03.481Z,74.10
2018-12-15T04:53:38.873Z,62.93
2018-12-15T04:56:12.311Z,66.10
2018-12-15T04:58:45.432Z,73.00
2018-12-15T05:01:19.004Z,68.97
2018-12-15T05:03:52.269Z,58.77
2018-12-15T05:06:25.122Z,63.77
2018-12-15T05:08:58.436Z,68.33
2018-12-15T05:11:31.233Z,68.90
2018-12-15T05:14:04.280Z,72.63
2018-12-15T05:16:38.613Z,69.03
2018-12-15T05:19:26.750Z,64.90
2018-12-15T05:21:59.658Z,32.33
2018-12-15T05:24:32.368Z,68.93
2018-12-15T05:27:06.867Z,63.73
2018-12-15T05:29:40.195Z,65.67
2018-12-15T05:32:13.040Z,73.90
2018-12-15T05:34:50.887Z,62.27
2018-12-15T05:37:24.296Z,62.73
2018-12-15T05:39:57.398Z,65.30
2018-12-15T05:42:30.715Z,60.83
2018-12-15T05:45:03.909Z,75.53
2018-12-15T05:47:38.372Z,55.40
2018-12-15T05:50:10.956Z,67.83
2018-12-15T05:52:43.963Z,63.10
2018-12-15T05:55:20.016Z,57.50
2018-12-15T05:57:55.508Z,59.80
2018-12-15T06:00:28.185Z,66.07
2018-12-15T06:03:02.243Z,57.97
2018-12-15T06:05:36.438Z,61.23
2018-12-15T06:08:08.920Z,70.53
2018-12-15T06:10:41.936Z,60.20
2018-12-15T06:13:15.269Z,64.03
2018-12-15T06:15:48.502Z,58.40
2018-12-15T06:18:21.470Z,64.63
2018-12-15T06:20:52.532Z,58.60
2018-12-15T06:23:25.706Z,61.97
2018-12-15T06:25:56.615Z,65.87
2018-12-15T06:28:30.481Z,59.37
2018-12-15T06:31:03.851Z,57.27
2018-12-15T06:33:36.759Z,42.40
2018-12-15T06:36:12.788Z,52.23
2018-12-15T06:38:45.352Z,45.57
2018-12-15T06:41:18.426Z,33.50
2018-12-15T06:43:51.100Z,39.63
2018-12-15T06:46:24.274Z,39.27
2018-12-15T06:48:57.357Z,43.03
2018-12-15T06:51:30.875Z,43.07
2018-12-15T06:54:04.872Z,49.63
2018-12-15T06:59:09.542Z,46.37
2018-12-15T07:01:42.143Z,46.03
2018-12-15T07:04:15.509Z,46.53
2018-12-15T07:06:47.885Z,47.60
2018-12-15T07:09:21.292Z,49.83
2018-12-15T07:11:53.927Z,47.63
2018-12-15T07:14:26.624Z,41.30
2018-12-15T07:16:58.005Z,40.37
2018-12-15T07:19:30.057Z,44.00
2018-12-15T07:22:02.360Z,43.17
2018-12-15T07:24:34.806Z,43.20
2018-12-15T07:27:09.198Z,43.43
2018-12-15T07:29:41.064Z,34.37
2018-12-15T07:32:13.392Z,39.83
2018-12-15T07:34:45.746Z,38.30
2018-12-15T07:37:18.879Z,41.53
2018-12-15T07:39:52.085Z,40.67
2018-12-15T07:42:26.422Z,41.47
2018-12-15T07:44:59.122Z,37.57
2018-12-15T07:47:31.859Z,41.83
2018-12-15T07:50:05.084Z,45.00
2018-12-15T07:52:37.244Z,38.40
2018-12-15T07:55:08.859Z,38.97
2018-12-15T07:57:40.925Z,39.03
2018-12-15T08:00:13.404Z,35.33
2018-12-15T08:02:45.613Z,38.10
2018-12-15T08:05:18.860Z,34.13
2018-12-15T08:07:51.376Z,38.43
2018-12-15T08:10:25.127Z,43.17
2018-12-15T08:12:57.760Z,41.10
2018-12-15T08:15:29.952Z,36.33
2018-12-15T08:18:02.228Z,28.90
2018-12-15T08:20:34.650Z,35.27
2018-12-15T08:23:09.695Z,36.60
2018-12-15T08:25:42.399Z,33.80
2018-12-15T08:28:14.468Z,33.00
2018-12-15T08:30:46.992Z,37.27
2018-12-15T08:33:18.612Z,33.63
2018-12-15T08:35:52.207Z,40.00
2018-12-15T08:38:29.207Z,37.80
2018-12-15T08:41:01.282Z,37.70
2018-12-15T08:43:33.236Z,38.27
2018-12-15T08:46:07.283Z,38.37
2018-12-15T08:48:39.519Z,38.30
2018-12-15T08:51:12.268Z,40.40
2018-12-15T08:53:45.263Z,37.80
2018-12-15T08:56:17.175Z,39.40
2018-12-15T08:58:49.232Z,34.30
2018-12-15T09:01:21.296Z,38.03
2018-12-15T09:03:53.762Z,39.93
2018-12-15T09:06:25.971Z,40.53
2018-12-15T09:09:12.071Z,23.83
2018-12-15T09:11:44.022Z,26.13
2018-12-15T09:14:18.085Z,36.03
2018-12-15T09:16:50.467Z,37.83
2018-12-15T09:19:22.771Z,35.10
2018-12-15T09:21:54.699Z,38.57
2018-12-15T09:24:25.318Z,25.40
2018-12-15T09:26:59.732Z,33.67
2018-12-15T09:29:35.569Z,36.00
2018-12-15T09:32:10.705Z,31.77
2018-12-15T09:34:45.059Z,33.23
2018-12-15T09:37:20.173Z,37.23
2018-12-15T09:39:54.668Z,37.17
2018-12-15T09:42:29.193Z,38.37
2018-12-15T09:45:02.322Z,40.67
2018-12-15T09:47:34.797Z,37.93
2018-12-15T09:50:07.903Z,38.77
2018-12-15T09:52:40.731Z,37.40
2018-12-15T09:55:13.607Z,40.83
2018-12-15T09:57:47.177Z,40.10
2018-12-15T10:00:19.859Z,41.47
2018-12-15T10:02:50.542Z,39.77
2018-12-15T10:05:23.344Z,36.00
2018-12-15T10:07:56.865Z,40.70
2018-12-15T10:10:29.832Z,38.87
2018-12-15T10:13:01.525Z,42.03
2018-12-15T10:15:36.113Z,38.97
2018-12-15T10:18:08.954Z,42.47
2018-12-15T10:20:42.595Z,38.53
2018-12-15T10:23:15.150Z,38.83
2018-12-15T10:26:07.609Z,40.00
2018-12-15T10:28:39.581Z,37.63
2018-12-15T10:31:17.106Z,40.47
2018-12-15T10:33:50.242Z,43.50
2018-12-15T10:36:23.054Z,41.33
2018-12-15T10:38:56.826Z,39.93
2018-12-15T10:41:29.038Z,42.10
2018-12-15T10:44:02.324Z,38.67
2018-12-15T10:46:34.389Z,40.87
2018-12-15T10:49:15.728Z,42.67
2018-12-15T10:51:55.687Z,42.27
2018-12-15T10:54:27.993Z,39.57
2018-12-15T10:57:00.055Z,46.63
2018-12-15T10:59:34.604Z,47.37
2018-12-15T11:02:07.639Z,43.00
2018-12-15T11:04:40.977Z,19.57
2018-12-15T11:07:13.981Z,42.03
2018-12-15T11:09:46.559Z,38.37
2018-12-15T11:12:18.828Z,40.70
2018-12-15T11:14:51.520Z,40.47
2018-12-15T11:17:23.616Z,41.63
2018-12-15T11:19:56.016Z,42.70
2018-12-15T11:22:28.824Z,41.27
2018-12-15T11:25:03.060Z,44.37
2018-12-15T11:27:35.433Z,40.23
2018-12-15T11:30:10.614Z,42.73
2018-12-15T11:32:43.184Z,47.60
2018-12-15T11:35:15.192Z,46.23
2018-12-15T11:37:47.413Z,45.17
2018-12-15T11:40:19.732Z,40.43
2018-12-15T11:42:57.631Z,40.30
2018-12-15T11:45:27.885Z,44.43
2018-12-15T11:48:00.210Z,46.97
2018-12-15T11:50:32.277Z,41.47
2018-12-15T11:53:04.764Z,42.83
2018-12-15T11:55:37.366Z,44.43
2018-12-15T11:58:09.736Z,43.93
2018-12-15T12:00:42.357Z,42.90
2018-12-15T12:03:14.737Z,41.07
2018-12-15T12:05:46.955Z,42.57
2018-12-15T12:08:19.565Z,48.60
2018-12-15T12:10:51.911Z,41.50
2018-12-15T12:13:23.938Z,41.83
2018-12-15T12:15:56.426Z,45.97
2018-12-15T12:18:30.757Z,44.20
2018-12-15T12:21:02.757Z,41.67
2018-12-15T12:23:34.877Z,45.03
2018-12-15T12:26:07.957Z,46.97
2018-12-15T12:28:38.480Z,44.37
2018-12-15T12:31:13.063Z,48.27
2018-12-15T12:33:44.185Z,45.67
2018-12-15T12:36:16.651Z,43.80
2018-12-15T12:38:48.908Z,45.50
2018-12-15T12:41:21.358Z,43.20
2018-12-15T12:43:54.352Z,46.73
2018-12-15T12:46:25.488Z,44.53
2018-12-15T12:48:58.388Z,42.57
2018-12-15T12:51:30.594Z,45.53
2018-12-15T12:54:03.302Z,43.13
2018-12-15T12:56:35.744Z,43.17
2018-12-15T13:02:01.628Z,45.30
2018-12-15T13:04:33.990Z,45.73
2018-12-15T13:07:06.354Z,44.93
2018-12-15T13:09:39.160Z,39.80
2018-12-15T13:12:12.281Z,47.63
2018-12-15T13:14:42.666Z,43.17
2018-12-15T13:17:15.471Z,46.30
2018-12-15T13:19:47.848Z,45.57
2018-12-15T13:22:20.803Z,39.10
2018-12-15T13:24:50.820Z,44.03
2018-12-15T13:27:22.156Z,46.37
2018-12-15T13:29:55.017Z,46.13
2018-12-15T13:32:27.036Z,46.07
2018-12-15T13:34:59.381Z,48.83
2018-12-15T13:37:33.910Z,48.00
2018-12-15T13:40:07.101Z,49.30
2018-12-15T13:42:42.803Z,46.60
2018-12-15T13:45:17.050Z,47.47
2018-12-15T13:47:51.867Z,40.53
2018-12-15T13:50:26.768Z,44.97
2018-12-15T13:53:00.995Z,45.00
2018-12-15T13:55:35.169Z,49.30
2018-12-15T13:58:10.156Z,44.87
2018-12-15T14:00:43.763Z,46.27
2018-12-15T14:03:16.293Z,42.33
2018-12-15T14:05:47.547Z,35.80
2018-12-15T14:08:18.026Z,41.27
2018-12-15T14:10:50.829Z,38.33
2018-12-15T14:13:24.478Z,43.87
2018-12-15T14:18:54.632Z,43.43
2018-12-15T14:21:26.475Z,41.87
2018-12-15T14:23:58.607Z,42.47
2018-12-15T14:26:32.880Z,38.57
2018-12-15T14:29:07.182Z,45.07
2018-12-15T14:31:39.426Z,45.23
2018-12-15T14:34:13.654Z,41.93
2018-12-15T14:36:47.954Z,44.37
2018-12-15T14:39:22.779Z,41.70
2018-12-15T14:41:55.506Z,40.80
2018-12-15T14:44:29.530Z,43.30
2018-12-15T14:47:03.716Z,39.07
2018-12-15T14:49:38.040Z,42.97
2018-12-15T14:52:11.967Z,35.30
2018-12-15T14:54:44.574Z,40.13
2018-12-15T14:57:22.162Z,41.80
2018-12-15T14:59:55.040Z,43.80
2018-12-15T15:02:29.385Z,44.60
2018-12-15T15:05:02.977Z,47.17
2018-12-15T15:07:35.317Z,49.07
2018-12-15T15:10:08.125Z,49.67
2018-12-15T15:12:40.531Z,46.77
2018-12-15T15:15:22.003Z,46.73
2018-12-15T15:18:00.545Z,48.80
2018-12-15T15:20:33.097Z,45.67
2018-12-15T15:23:08.179Z,52.73
2018-12-15T15:25:40.237Z,48.40
2018-12-15T15:28:12.516Z,49.63
2018-12-15T15:30:46.104Z,51.57
2018-12-15T15:33:27.817Z,52.37
2018-12-15T15:36:00.365Z,49.83
2018-12-15T15:38:32.550Z,48.53
2018-12-15T15:41:05.174Z,48.47
2018-12-15T15:43:39.884Z,49.60
2018-12-15T15:46:12.455Z,50.10
2018-12-15T15:48:44.829Z,47.03
2018-12-15T15:51:17.197Z,47.30
2018-12-15T15:53:49.453Z,48.03
2018-12-15T15:56:23.902Z,57.27
2018-12-15T15:58:56.405Z,51.23
2018-12-15T16:01:28.965Z,43.70
2018-12-15T16:04:01.032Z,53.30
2018-12-15T16:06:33.707Z,52.53
2018-12-15T16:09:09.184Z,54.63
2018-12-15T16:11:43.114Z,57.07
2018-12-15T16:14:15.366Z,50.17
2018-12-15T16:16:47.774Z,52.73
2018-12-15T16:19:22.236Z,51.20
2018-12-15T16:21:54.769Z,53.13
2018-12-15T16:24:27.129Z,56.13
2018-12-15T16:26:59.200Z,57.03
2018-12-15T16:29:32.024Z,54.43
2018-12-15T16:32:03.904Z,60.53
2018-12-15T16:34:36.369Z,59.80
2018-12-15T16:37:08.443Z,57.40
2018-12-15T16:39:40.769Z,59.40
2018-12-15T16:42:13.659Z,55.37
2018-12-15T16:44:45.710Z,70.83
2018-12-15T16:47:17.864Z,59.90
2018-12-15T16:52:42.289Z,56.83
2018-12-15T16:55:14.335Z,57.70
2018-12-15T16:57:46.482Z,54.87
2018-12-15T17:00:16.682Z,72.10
2018-12-15T17:02:46.986Z,61.90
2018-12-15T17:05:19.251Z,63.20
2018-12-15T17:07:51.747Z,64.17
2018-12-15T17:10:22.009Z,61.67
2018-12-15T17:12:55.360Z,57.83
2018-12-15T17:15:27.515Z,58.83
2018-12-15T17:17:59.651Z,63.83
2018-12-15T17:20:31.786Z,60.83
2018-12-15T17:23:04.150Z,58.70
2018-12-15T17:25:38.844Z,54.77
2018-12-15T17:28:10.669Z,57.87
2018-12-15T17:30:41.161Z,67.83
2018-12-15T17:33:13.305Z,68.40
2018-12-15T17:35:45.594Z,64.63
2018-12-15T17:38:16.004Z,60.93
2018-12-15T17:40:48.345Z,60.93
2018-12-15T17:43:21.088Z,61.07
2018-12-15T17:45:51.237Z,58.43
2018-12-15T17:48:25.630Z,60.03
2018-12-15T17:51:03.078Z,59.90
2018-12-15T17:53:31.844Z,64.33
2018-12-15T17:56:04.900Z,53.93
2018-12-15T17:58:37.463Z,59.60
2018-12-15T18:01:09.821Z,62.57
2018-12-15T18:03:42.078Z,59.27
2018-12-15T18:06:16.419Z,59.77
2018-12-15T18:08:48.324Z,52.70
2018-12-15T18:11:20.603Z,61.20
2018-12-15T18:13:53.079Z,61.53
2018-12-15T18:16:24.673Z,58.13
2018-12-15T18:18:57.232Z,59.73
2018-12-15T18:21:29.015Z,61.17
2018-12-15T18:31:33.341Z,65.50
2018-12-15T18:34:05.354Z,66.70
2018-12-15T18:36:37.611Z,73.47
2018-12-15T18:39:09.732Z,58.40
2018-12-15T18:41:42.064Z,65.13
2018-12-15T18:44:12.454Z,65.03
2018-12-15T18:46:44.385Z,59.57
2018-12-15T18:49:16.801Z,65.03
2018-12-15T18:51:49.192Z,66.73
2018-12-15T18:54:21.417Z,57.97
2018-12-15T18:56:53.457Z,51.03
2018-12-15T18:59:25.854Z,53.03
2018-12-15T19:01:57.879Z,73.50
2018-12-15T19:04:30.512Z,63.33
2018-12-15T19:07:02.407Z,67.43
2018-12-15T19:09:34.722Z,68.00
2018-12-15T19:12:06.870Z,66.30
2018-12-15T19:14:40.337Z,60.73
2018-12-15T19:17:13.025Z,63.67
2018-12-15T19:19:43.568Z,65.87
2018-12-15T19:22:15.777Z,62.10
2018-12-15T19:24:47.899Z,58.63
2018-12-15T19:27:20.396Z,67.13
2018-12-15T19:29:52.256Z,61.40
2018-12-15T19:34:56.543Z,70.00
2018-12-15T19:37:28.512Z,63.20
2018-12-15T19:40:03.735Z,65.40
2018-12-15T19:42:34.045Z,61.17
2018-12-15T19:45:09.431Z,65.67
2018-12-15T19:47:41.748Z,61.50
2018-12-15T19:50:14.128Z,72.53
2018-12-15T19:52:44.610Z,61.63
2018-12-15T19:55:16.911Z,63.73
2018-12-15T19:57:48.935Z,66.90
2018-12-15T20:00:21.253Z,64.97
2018-12-15T20:02:53.728Z,59.03
2018-12-15T20:05:25.927Z,59.90
2018-12-15T20:07:58.355Z,64.87
2018-12-15T20:10:30.366Z,62.20
2018-12-15T20:13:02.393Z,62.27
2018-12-15T20:15:34.483Z,56.47
2018-12-15T20:18:06.765Z,59.13
2018-12-15T20:20:38.541Z,63.40
2018-12-15T20:23:10.756Z,67.57
2018-12-15T20:25:42.948Z,61.33
2018-12-15T20:28:15.986Z,61.43
2018-12-15T20:30:48.500Z,66.30
2018-12-15T20:33:20.696Z,62.60
2018-12-15T20:38:22.997Z,68.23
2018-12-15T20:40:56.876Z,53.80
2018-12-15T20:43:29.218Z,67.83
2018-12-15T20:45:59.439Z,70.10
2018-12-15T20:48:32.431Z,65.40
2018-12-15T20:51:04.344Z,61.40
2018-12-15T20:53:36.508Z,62.53
2018-12-15T20:56:08.685Z,71.40
2018-12-15T20:58:38.899Z,55.17
2018-12-15T21:01:11.188Z,63.43
2018-12-15T21:03:43.991Z,64.93
2018-12-15T21:06:15.884Z,56.33
2018-12-15T21:08:48.451Z,66.37
2018-12-15T21:11:24.153Z,63.67
2018-12-15T21:13:56.716Z,64.70
2018-12-15T21:16:28.461Z,64.23
2018-12-15T21:19:01.003Z,67.70
2018-12-15T21:21:30.992Z,63.93
2018-12-15T21:24:03.365Z,65.80
2018-12-15T21:26:38.077Z,69.77
2018-12-15T21:29:09.955Z,70.00
2018-12-15T21:31:42.470Z,73.80
2018-12-15T21:34:15.094Z,69.70
2018-12-15T21:36:49.877Z,70.20
2018-12-15T21:41:54.188Z,64.23
2018-12-15T21:44:26.554Z,62.60
2018-12-15T21:46:58.779Z,61.60
2018-12-15T21:49:31.094Z,64.00
2018-12-15T21:52:03.222Z,70.10
2018-12-15T21:54:35.761Z,68.37
2018-12-15T22:00:01.470Z,64.83
2018-12-15T22:02:34.304Z,65.97
2018-12-15T22:05:06.567Z,68.60
2018-12-15T22:07:40.586Z,55.67
2018-12-15T22:10:12.201Z,52.67
2018-12-15T22:12:45.304Z,59.40
2018-12-15T22:15:19.704Z,52.50
2018-12-15T22:17:51.875Z,55.70
2018-12-15T22:20:25.978Z,50.17
2018-12-15T22:22:57.929Z,62.33
2018-12-15T22:25:30.335Z,54.07
2018-12-15T22:28:02.601Z,58.00
2018-12-15T22:30:35.116Z,60.83
2018-12-15T22:33:07.378Z,42.27
2018-12-15T22:35:37.517Z,47.30
2018-12-15T22:38:10.152Z,59.93
2018-12-15T22:40:42.061Z,57.73
2018-12-15T22:43:14.367Z,53.73
2018-12-15T22:45:47.020Z,60.53
2018-12-15T22:48:19.642Z,58.73
2018-12-15T22:50:51.798Z,60.93
2018-12-15T22:53:24.012Z,54.67
2018-12-15T22:55:57.188Z,52.50
2018-12-15T22:58:29.742Z,57.63
2018-12-15T23:01:06.876Z,51.13
2018-12-15T23:03:39.335Z,56.77
2018-12-15T23:06:11.705Z,48.23
2018-12-15T23:08:44.164Z,65.10
2018-12-15T23:11:16.852Z,54.83
2018-12-15T23:16:43.470Z,63.33
2018-12-15T23:19:15.533Z,56.43
2018-12-15T23:21:47.626Z,51.00
2018-12-15T23:24:17.998Z,59.77
2018-12-15T23:26:50.935Z,60.67
2018-12-15T23:29:26.515Z,62.13
2018-12-15T23:31:58.345Z,61.50
2018-12-15T23:34:30.909Z,64.57
2018-12-15T23:37:03.136Z,59.20
2018-12-15T23:39:35.531Z,58.03
2018-12-15T23:42:10.176Z,61.43
2018-12-15T23:44:42.446Z,62.57
2018-12-15T23:47:14.008Z,63.30
2018-12-15T23:49:46.163Z,60.37
2018-12-15T23:52:23.333Z,63.33
2018-12-15T23:54:53.305Z,60.30
2018-12-15T23:57:26.757Z,65.60
2018-12-15T23:59:58.503Z,60.23
